sensor_id;sensor_type;location;lat;lon;timestamp;temperature;humidity
63013;DHT22;62113;45.624;11.700;2023-06-22T00:00:53;29.30;55.20
63013;DHT22;62113;45.624;11.700;2023-06-22T00:03:20;29.20;55.20
63013;DHT22;62113;45.624;11.700;2023-06-22T00:05:47;29.20;55.20
63013;DHT22;62113;45.624;11.700;2023-06-22T00:08:13;29.20;55.30
63013;DHT22;62113;45.624;11.700;2023-06-22T00:10:38;29.20;55.40
63013;DHT22;62113;45.624;11.700;2023-06-22T00:13:05;29.20;55.30
63013;DHT22;62113;45.624;11.700;2023-06-22T00:15:31;29.20;55.30
63013;DHT22;62113;45.624;11.700;2023-06-22T00:17:57;29.20;55.30
63013;DHT22;62113;45.624;11.700;2023-06-22T00:20:23;29.20;55.50
63013;DHT22;62113;45.624;11.700;2023-06-22T00:22:56;29.10;55.70
63013;DHT22;62113;45.624;11.700;2023-06-22T00:25:22;29.10;55.80
63013;DHT22;62113;45.624;11.700;2023-06-22T00:27:48;29.00;55.90
63013;DHT22;62113;45.624;11.700;2023-06-22T00:30:17;29.00;56.00
63013;DHT22;62113;45.624;11.700;2023-06-22T00:32:44;29.00;56.20
63013;DHT22;62113;45.624;11.700;2023-06-22T00:35:10;29.00;56.10
63013;DHT22;62113;45.624;11.700;2023-06-22T00:37:36;28.90;56.20
63013;DHT22;62113;45.624;11.700;2023-06-22T00:40:03;28.90;56.30
63013;DHT22;62113;45.624;11.700;2023-06-22T00:42:30;28.80;56.50
63013;DHT22;62113;45.624;11.700;2023-06-22T00:44:56;28.80;56.50
63013;DHT22;62113;45.624;11.700;2023-06-22T00:47:22;28.80;56.60
63013;DHT22;62113;45.624;11.700;2023-06-22T00:49:49;28.80;56.60
63013;DHT22;62113;45.624;11.700;2023-06-22T00:52:20;28.80;56.60
63013;DHT22;62113;45.624;11.700;2023-06-22T00:54:51;28.70;56.70
63013;DHT22;62113;45.624;11.700;2023-06-22T00:57:17;28.70;56.80
63013;DHT22;62113;45.624;11.700;2023-06-22T00:59:47;28.70;56.80
63013;DHT22;62113;45.624;11.700;2023-06-22T01:02:13;28.70;56.70
63013;DHT22;62113;45.624;11.700;2023-06-22T01:04:40;28.70;56.70
63013;DHT22;62113;45.624;11.700;2023-06-22T01:07:22;28.70;56.80
63013;DHT22;62113;45.624;11.700;2023-06-22T01:09:53;28.70;56.90
63013;DHT22;62113;45.624;11.700;2023-06-22T01:12:21;28.70;56.90
63013;DHT22;62113;45.624;11.700;2023-06-22T01:14:55;28.70;56.90
63013;DHT22;62113;45.624;11.700;2023-06-22T01:17:24;28.60;57.10
63013;DHT22;62113;45.624;11.700;2023-06-22T01:19:52;28.60;57.10
63013;DHT22;62113;45.624;11.700;2023-06-22T01:22:24;28.60;57.20
63013;DHT22;62113;45.624;11.700;2023-06-22T01:25:21;28.60;57.30
63013;DHT22;62113;45.624;11.700;2023-06-22T01:30:41;28.50;57.40
63013;DHT22;62113;45.624;11.700;2023-06-22T01:33:10;28.50;57.40
63013;DHT22;62113;45.624;11.700;2023-06-22T01:35:37;28.50;57.50
63013;DHT22;62113;45.624;11.700;2023-06-22T01:38:03;28.40;57.70
63013;DHT22;62113;45.624;11.700;2023-06-22T01:40:29;28.40;57.80
63013;DHT22;62113;45.624;11.700;2023-06-22T01:42:55;28.30;57.90
63013;DHT22;62113;45.624;11.700;2023-06-22T01:45:21;28.40;57.80
63013;DHT22;62113;45.624;11.700;2023-06-22T01:47:47;28.30;58.00
63013;DHT22;62113;45.624;11.700;2023-06-22T01:50:12;28.30;58.30
63013;DHT22;62113;45.624;11.700;2023-06-22T01:52:38;28.30;58.20
63013;DHT22;62113;45.624;11.700;2023-06-22T01:55:04;28.20;58.40
63013;DHT22;62113;45.624;11.700;2023-06-22T01:57:32;28.20;58.30
63013;DHT22;62113;45.624;11.700;2023-06-22T02:02:23;28.20;58.60
63013;DHT22;62113;45.624;11.700;2023-06-22T02:05:01;28.20;58.70
63013;DHT22;62113;45.624;11.700;2023-06-22T02:07:32;28.20;58.80
63013;DHT22;62113;45.624;11.700;2023-06-22T02:10:00;28.20;58.90
63013;DHT22;62113;45.624;11.700;2023-06-22T02:12:28;28.20;59.00
63013;DHT22;62113;45.624;11.700;2023-06-22T02:14:54;28.20;59.00
63013;DHT22;62113;45.624;11.700;2023-06-22T02:17:21;28.20;59.10
63013;DHT22;62113;45.624;11.700;2023-06-22T02:19:46;28.20;59.20
63013;DHT22;62113;45.624;11.700;2023-06-22T02:22:12;28.20;59.20
63013;DHT22;62113;45.624;11.700;2023-06-22T02:24:39;28.20;59.10
63013;DHT22;62113;45.624;11.700;2023-06-22T02:27:05;28.10;59.20
63013;DHT22;62113;45.624;11.700;2023-06-22T02:29:32;28.10;59.30
63013;DHT22;62113;45.624;11.700;2023-06-22T02:31:58;28.10;59.40
63013;DHT22;62113;45.624;11.700;2023-06-22T02:34:24;28.00;59.30
63013;DHT22;62113;45.624;11.700;2023-06-22T02:36:50;28.00;59.30
63013;DHT22;62113;45.624;11.700;2023-06-22T02:39:23;28.00;59.40
63013;DHT22;62113;45.624;11.700;2023-06-22T02:41:53;28.00;59.40
63013;DHT22;62113;45.624;11.700;2023-06-22T02:44:19;27.90;59.30
63013;DHT22;62113;45.624;11.700;2023-06-22T02:46:46;27.90;59.40
63013;DHT22;62113;45.624;11.700;2023-06-22T02:49:12;27.90;59.50
63013;DHT22;62113;45.624;11.700;2023-06-22T02:51:44;27.90;59.60
63013;DHT22;62113;45.624;11.700;2023-06-22T02:54:10;27.80;59.50
63013;DHT22;62113;45.624;11.700;2023-06-22T02:56:35;27.80;59.50
63013;DHT22;62113;45.624;11.700;2023-06-22T02:59:02;27.80;59.60
63013;DHT22;62113;45.624;11.700;2023-06-22T03:01:28;27.80;59.60
63013;DHT22;62113;45.624;11.700;2023-06-22T03:03:56;27.80;59.60
63013;DHT22;62113;45.624;11.700;2023-06-22T03:06:22;27.80;59.70
63013;DHT22;62113;45.624;11.700;2023-06-22T03:08:51;27.80;59.80
63013;DHT22;62113;45.624;11.700;2023-06-22T03:11:17;27.80;59.90
63013;DHT22;62113;45.624;11.700;2023-06-22T03:13:43;27.70;59.90
63013;DHT22;62113;45.624;11.700;2023-06-22T03:16:09;27.70;60.00
63013;DHT22;62113;45.624;11.700;2023-06-22T03:18:34;27.70;60.00
63013;DHT22;62113;45.624;11.700;2023-06-22T03:21:00;27.70;60.10
63013;DHT22;62113;45.624;11.700;2023-06-22T03:23:27;27.70;60.10
63013;DHT22;62113;45.624;11.700;2023-06-22T03:25:53;27.70;60.40
63013;DHT22;62113;45.624;11.700;2023-06-22T03:28:21;27.60;60.80
63013;DHT22;62113;45.624;11.700;2023-06-22T03:30:47;27.40;60.50
63013;DHT22;62113;45.624;11.700;2023-06-22T03:33:12;27.20;61.00
63013;DHT22;62113;45.624;11.700;2023-06-22T03:35:38;27.10;62.60
63013;DHT22;62113;45.624;11.700;2023-06-22T03:38:04;26.90;62.00
63013;DHT22;62113;45.624;11.700;2023-06-22T03:40:29;26.70;62.10
63013;DHT22;62113;45.624;11.700;2023-06-22T03:42:55;26.70;62.30
63013;DHT22;62113;45.624;11.700;2023-06-22T03:45:21;26.70;62.50
63013;DHT22;62113;45.624;11.700;2023-06-22T03:47:46;26.70;62.50
63013;DHT22;62113;45.624;11.700;2023-06-22T03:50:12;26.70;62.50
63013;DHT22;62113;45.624;11.700;2023-06-22T03:52:39;26.80;62.40
63013;DHT22;62113;45.624;11.700;2023-06-22T03:55:06;26.80;62.30
63013;DHT22;62113;45.624;11.700;2023-06-22T03:57:32;26.90;62.20
63013;DHT22;62113;45.624;11.700;2023-06-22T03:59:58;26.90;62.20
63013;DHT22;62113;45.624;11.700;2023-06-22T04:02:24;27.00;62.10
63013;DHT22;62113;45.624;11.700;2023-06-22T04:04:50;27.00;62.10
63013;DHT22;62113;45.624;11.700;2023-06-22T04:07:15;27.00;62.10
63013;DHT22;62113;45.624;11.700;2023-06-22T04:09:41;27.10;62.00
63013;DHT22;62113;45.624;11.700;2023-06-22T04:12:07;27.10;61.80
63013;DHT22;62113;45.624;11.700;2023-06-22T04:14:33;27.20;61.80
63013;DHT22;62113;45.624;11.700;2023-06-22T04:16:58;27.20;61.90
63013;DHT22;62113;45.624;11.700;2023-06-22T04:19:24;27.20;61.70
63013;DHT22;62113;45.624;11.700;2023-06-22T04:21:49;27.30;61.70
63013;DHT22;62113;45.624;11.700;2023-06-22T04:24:15;27.30;61.60
63013;DHT22;62113;45.624;11.700;2023-06-22T04:26:41;27.40;61.60
63013;DHT22;62113;45.624;11.700;2023-06-22T04:29:11;27.50;61.30
63013;DHT22;62113;45.624;11.700;2023-06-22T04:31:37;27.60;61.10
63013;DHT22;62113;45.624;11.700;2023-06-22T04:34:04;27.70;61.00
63013;DHT22;62113;45.624;11.700;2023-06-22T04:36:37;27.70;60.90
63013;DHT22;62113;45.624;11.700;2023-06-22T04:39:13;27.80;60.80
63013;DHT22;62113;45.624;11.700;2023-06-22T04:41:39;28.00;60.50
63013;DHT22;62113;45.624;11.700;2023-06-22T04:44:12;28.10;60.10
63013;DHT22;62113;45.624;11.700;2023-06-22T04:46:39;28.20;59.80
63013;DHT22;62113;45.624;11.700;2023-06-22T04:49:08;28.30;59.70
63013;DHT22;62113;45.624;11.700;2023-06-22T04:51:41;28.40;59.60
63013;DHT22;62113;45.624;11.700;2023-06-22T04:54:08;28.40;59.40
63013;DHT22;62113;45.624;11.700;2023-06-22T04:56:34;28.40;59.40
63013;DHT22;62113;45.624;11.700;2023-06-22T04:59:00;28.30;59.50
63013;DHT22;62113;45.624;11.700;2023-06-22T05:01:26;28.30;59.00
63013;DHT22;62113;45.624;11.700;2023-06-22T05:03:52;28.40;58.40
63013;DHT22;62113;45.624;11.700;2023-06-22T05:06:24;28.40;57.70
63013;DHT22;62113;45.624;11.700;2023-06-22T05:08:54;28.60;57.30
63013;DHT22;62113;45.624;11.700;2023-06-22T05:11:26;28.70;57.10
63013;DHT22;62113;45.624;11.700;2023-06-22T05:13:52;28.90;57.10
63013;DHT22;62113;45.624;11.700;2023-06-22T05:16:18;29.00;56.90
63013;DHT22;62113;45.624;11.700;2023-06-22T05:18:52;29.20;56.50
63013;DHT22;62113;45.624;11.700;2023-06-22T05:21:22;29.30;56.20
63013;DHT22;62113;45.624;11.700;2023-06-22T05:23:48;29.50;55.80
63013;DHT22;62113;45.624;11.700;2023-06-22T05:26:13;29.70;55.50
63013;DHT22;62113;45.624;11.700;2023-06-22T05:28:39;29.70;55.20
63013;DHT22;62113;45.624;11.700;2023-06-22T05:31:05;29.90;54.90
63013;DHT22;62113;45.624;11.700;2023-06-22T05:33:30;29.90;54.70
63013;DHT22;62113;45.624;11.700;2023-06-22T05:35:56;30.00;54.60
63013;DHT22;62113;45.624;11.700;2023-06-22T05:38:21;30.10;54.40
63013;DHT22;62113;45.624;11.700;2023-06-22T05:40:47;30.10;54.30
63013;DHT22;62113;45.624;11.700;2023-06-22T05:43:13;30.20;54.50
63013;DHT22;62113;45.624;11.700;2023-06-22T05:45:38;30.20;54.40
63013;DHT22;62113;45.624;11.700;2023-06-22T05:48:04;30.30;54.30
63013;DHT22;62113;45.624;11.700;2023-06-22T05:50:30;30.40;54.40
63013;DHT22;62113;45.624;11.700;2023-06-22T05:52:56;30.50;54.20
63013;DHT22;62113;45.624;11.700;2023-06-22T05:55:21;30.70;54.00
63013;DHT22;62113;45.624;11.700;2023-06-22T05:57:47;30.80;53.60
63013;DHT22;62113;45.624;11.700;2023-06-22T06:00:13;31.00;53.10
63013;DHT22;62113;45.624;11.700;2023-06-22T06:02:40;31.10;52.80
63013;DHT22;62113;45.624;11.700;2023-06-22T06:05:10;31.20;52.60
63013;DHT22;62113;45.624;11.700;2023-06-22T06:07:36;31.20;52.30
63013;DHT22;62113;45.624;11.700;2023-06-22T06:10:03;31.20;52.30
63013;DHT22;62113;45.624;11.700;2023-06-22T06:12:30;31.20;52.80
63013;DHT22;62113;45.624;11.700;2023-06-22T06:14:55;31.10;53.30
63013;DHT22;62113;45.624;11.700;2023-06-22T06:17:22;31.10;53.60
63013;DHT22;62113;45.624;11.700;2023-06-22T06:19:47;31.10;53.50
63013;DHT22;62113;45.624;11.700;2023-06-22T06:22:13;31.10;53.30
63013;DHT22;62113;45.624;11.700;2023-06-22T06:24:39;31.20;53.30
63013;DHT22;62113;45.624;11.700;2023-06-22T06:27:04;31.20;53.30
63013;DHT22;62113;45.624;11.700;2023-06-22T06:29:31;31.30;53.10
63013;DHT22;62113;45.624;11.700;2023-06-22T06:31:57;31.60;52.80
63013;DHT22;62113;45.624;11.700;2023-06-22T06:34:22;31.90;52.20
63013;DHT22;62113;45.624;11.700;2023-06-22T06:36:48;32.20;51.50
63013;DHT22;62113;45.624;11.700;2023-06-22T06:39:13;32.50;50.50
63013;DHT22;62113;45.624;11.700;2023-06-22T06:41:39;32.90;49.80
63013;DHT22;62113;45.624;11.700;2023-06-22T06:44:05;33.20;49.20
63013;DHT22;62113;45.624;11.700;2023-06-22T06:46:30;33.30;48.60
63013;DHT22;62113;45.624;11.700;2023-06-22T06:48:56;33.60;48.70
63013;DHT22;62113;45.624;11.700;2023-06-22T06:51:21;33.70;47.70
63013;DHT22;62113;45.624;11.700;2023-06-22T06:53:47;34.00;47.80
63013;DHT22;62113;45.624;11.700;2023-06-22T06:56:12;34.20;47.50
63013;DHT22;62113;45.624;11.700;2023-06-22T06:58:41;34.50;47.60
63013;DHT22;62113;45.624;11.700;2023-06-22T07:01:08;34.80;46.50
63013;DHT22;62113;45.624;11.700;2023-06-22T07:03:33;35.30;45.90
63013;DHT22;62113;45.624;11.700;2023-06-22T07:05:59;35.80;44.80
63013;DHT22;62113;45.624;11.700;2023-06-22T07:08:25;36.20;44.20
63013;DHT22;62113;45.624;11.700;2023-06-22T07:10:52;36.50;43.70
63013;DHT22;62113;45.624;11.700;2023-06-22T07:13:18;36.40;43.20
63013;DHT22;62113;45.624;11.700;2023-06-22T07:15:43;36.40;43.00
63013;DHT22;62113;45.624;11.700;2023-06-22T07:18:09;36.30;43.10
63013;DHT22;62113;45.624;11.700;2023-06-22T07:20:34;36.30;43.00
63013;DHT22;62113;45.624;11.700;2023-06-22T07:23:00;36.20;43.40
63013;DHT22;62113;45.624;11.700;2023-06-22T07:25:26;36.20;43.50
63013;DHT22;62113;45.624;11.700;2023-06-22T07:28:03;36.20;43.60
63013;DHT22;62113;45.624;11.700;2023-06-22T07:30:30;36.30;43.60
63013;DHT22;62113;45.624;11.700;2023-06-22T07:32:56;36.40;43.20
63013;DHT22;62113;45.624;11.700;2023-06-22T07:35:22;36.40;42.80
63013;DHT22;62113;45.624;11.700;2023-06-22T07:37:48;36.40;42.70
63013;DHT22;62113;45.624;11.700;2023-06-22T07:40:13;36.40;43.30
63013;DHT22;62113;45.624;11.700;2023-06-22T07:42:39;36.50;43.20
63013;DHT22;62113;45.624;11.700;2023-06-22T07:45:05;36.50;43.40
63013;DHT22;62113;45.624;11.700;2023-06-22T07:47:33;36.70;43.40
63013;DHT22;62113;45.624;11.700;2023-06-22T07:50:00;36.90;41.40
63013;DHT22;62113;45.624;11.700;2023-06-22T07:52:30;37.10;40.20
63013;DHT22;62113;45.624;11.700;2023-06-22T07:54:56;37.40;41.30
63013;DHT22;62113;45.624;11.700;2023-06-22T07:57:21;37.80;41.00
63013;DHT22;62113;45.624;11.700;2023-06-22T07:59:47;37.70;39.60
63013;DHT22;62113;45.624;11.700;2023-06-22T08:02:13;37.40;40.60
63013;DHT22;62113;45.624;11.700;2023-06-22T08:04:39;37.40;40.60
63013;DHT22;62113;45.624;11.700;2023-06-22T08:07:05;37.40;40.70
63013;DHT22;62113;45.624;11.700;2023-06-22T08:09:32;37.40;40.50
63013;DHT22;62113;45.624;11.700;2023-06-22T08:11:58;37.30;40.60
63013;DHT22;62113;45.624;11.700;2023-06-22T08:14:29;37.30;40.90
63013;DHT22;62113;45.624;11.700;2023-06-22T08:16:54;37.50;40.80
63013;DHT22;62113;45.624;11.700;2023-06-22T08:19:20;37.50;41.40
63013;DHT22;62113;45.624;11.700;2023-06-22T08:21:46;37.20;41.70
63013;DHT22;62113;45.624;11.700;2023-06-22T08:24:12;36.90;42.20
63013;DHT22;62113;45.624;11.700;2023-06-22T08:26:38;36.60;42.70
63013;DHT22;62113;45.624;11.700;2023-06-22T08:29:04;36.30;43.00
63013;DHT22;62113;45.624;11.700;2023-06-22T08:31:30;36.20;43.30
63013;DHT22;62113;45.624;11.700;2023-06-22T08:33:56;35.90;43.30
63013;DHT22;62113;45.624;11.700;2023-06-22T08:36:22;35.70;43.30
63013;DHT22;62113;45.624;11.700;2023-06-22T08:38:47;35.60;43.50
63013;DHT22;62113;45.624;11.700;2023-06-22T08:41:17;35.50;43.70
63013;DHT22;62113;45.624;11.700;2023-06-22T08:43:43;35.30;43.90
63013;DHT22;62113;45.624;11.700;2023-06-22T08:46:12;35.20;44.70
63013;DHT22;62113;45.624;11.700;2023-06-22T08:48:38;35.00;44.80
63013;DHT22;62113;45.624;11.700;2023-06-22T08:51:04;34.90;44.60
63013;DHT22;62113;45.624;11.700;2023-06-22T08:53:29;34.70;44.70
63013;DHT22;62113;45.624;11.700;2023-06-22T08:55:55;34.70;44.90
63013;DHT22;62113;45.624;11.700;2023-06-22T08:58:20;34.80;44.90
63013;DHT22;62113;45.624;11.700;2023-06-22T09:00:47;34.80;45.40
63013;DHT22;62113;45.624;11.700;2023-06-22T09:03:13;34.80;45.70
63013;DHT22;62113;45.624;11.700;2023-06-22T09:05:38;34.90;46.50
63013;DHT22;62113;45.624;11.700;2023-06-22T09:08:04;34.90;47.00
63013;DHT22;62113;45.624;11.700;2023-06-22T09:10:30;34.90;47.10
63013;DHT22;62113;45.624;11.700;2023-06-22T09:12:56;34.90;46.50
63013;DHT22;62113;45.624;11.700;2023-06-22T09:15:22;34.90;46.50
63013;DHT22;62113;45.624;11.700;2023-06-22T09:17:48;34.90;46.20
63013;DHT22;62113;45.624;11.700;2023-06-22T09:20:14;35.00;45.90
63013;DHT22;62113;45.624;11.700;2023-06-22T09:22:40;35.00;46.20
63013;DHT22;62113;45.624;11.700;2023-06-22T09:25:06;34.90;44.90
63013;DHT22;62113;45.624;11.700;2023-06-22T09:27:31;34.90;45.00
63013;DHT22;62113;45.624;11.700;2023-06-22T09:29:57;34.90;44.50
63013;DHT22;62113;45.624;11.700;2023-06-22T09:32:24;34.80;44.30
63013;DHT22;62113;45.624;11.700;2023-06-22T09:34:50;34.80;43.50
63013;DHT22;62113;45.624;11.700;2023-06-22T09:37:16;34.80;43.60
63013;DHT22;62113;45.624;11.700;2023-06-22T09:39:41;34.90;43.50
63013;DHT22;62113;45.624;11.700;2023-06-22T09:42:07;34.90;43.50
63013;DHT22;62113;45.624;11.700;2023-06-22T09:44:33;35.00;43.60
63013;DHT22;62113;45.624;11.700;2023-06-22T09:46:59;34.90;43.70
63013;DHT22;62113;45.624;11.700;2023-06-22T09:49:25;34.90;43.60
63013;DHT22;62113;45.624;11.700;2023-06-22T09:51:51;34.80;43.40
63013;DHT22;62113;45.624;11.700;2023-06-22T09:54:16;34.80;43.40
63013;DHT22;62113;45.624;11.700;2023-06-22T09:56:42;34.80;44.10
63013;DHT22;62113;45.624;11.700;2023-06-22T09:59:07;34.80;44.60
63013;DHT22;62113;45.624;11.700;2023-06-22T10:01:33;34.70;43.80
63013;DHT22;62113;45.624;11.700;2023-06-22T10:03:58;34.70;43.70
63013;DHT22;62113;45.624;11.700;2023-06-22T10:06:24;34.70;43.20
63013;DHT22;62113;45.624;11.700;2023-06-22T10:08:53;34.60;43.20
63013;DHT22;62113;45.624;11.700;2023-06-22T10:11:18;34.50;43.10
63013;DHT22;62113;45.624;11.700;2023-06-22T10:13:44;34.50;43.50
63013;DHT22;62113;45.624;11.700;2023-06-22T10:16:10;34.40;44.60
63013;DHT22;62113;45.624;11.700;2023-06-22T10:18:35;34.50;44.50
63013;DHT22;62113;45.624;11.700;2023-06-22T10:21:01;34.40;45.20
63013;DHT22;62113;45.624;11.700;2023-06-22T10:23:27;34.40;45.00
63013;DHT22;62113;45.624;11.700;2023-06-22T10:25:52;34.50;44.90
63013;DHT22;62113;45.624;11.700;2023-06-22T10:28:18;34.60;44.70
63013;DHT22;62113;45.624;11.700;2023-06-22T10:30:44;34.60;44.50
63013;DHT22;62113;45.624;11.700;2023-06-22T10:33:10;34.60;44.00
63013;DHT22;62113;45.624;11.700;2023-06-22T10:35:36;34.50;43.70
63013;DHT22;62113;45.624;11.700;2023-06-22T10:38:05;34.40;43.80
63013;DHT22;62113;45.624;11.700;2023-06-22T10:40:31;34.20;43.40
63013;DHT22;62113;45.624;11.700;2023-06-22T10:42:57;34.20;44.00
63013;DHT22;62113;45.624;11.700;2023-06-22T10:45:22;34.10;43.80
63013;DHT22;62113;45.624;11.700;2023-06-22T10:47:48;34.20;42.90
63013;DHT22;62113;45.624;11.700;2023-06-22T10:50:14;34.20;43.40
63013;DHT22;62113;45.624;11.700;2023-06-22T10:52:40;34.20;44.20
63013;DHT22;62113;45.624;11.700;2023-06-22T10:55:10;34.20;42.90
63013;DHT22;62113;45.624;11.700;2023-06-22T10:57:35;34.00;41.30
63013;DHT22;62113;45.624;11.700;2023-06-22T11:00:02;34.20;42.20
63013;DHT22;62113;45.624;11.700;2023-06-22T11:02:31;34.20;42.20
63013;DHT22;62113;45.624;11.700;2023-06-22T11:04:57;34.20;42.40
63013;DHT22;62113;45.624;11.700;2023-06-22T11:07:25;34.30;42.00
63013;DHT22;62113;45.624;11.700;2023-06-22T11:09:53;34.40;41.20
63013;DHT22;62113;45.624;11.700;2023-06-22T11:12:18;34.50;40.80
63013;DHT22;62113;45.624;11.700;2023-06-22T11:14:44;34.60;40.80
63013;DHT22;62113;45.624;11.700;2023-06-22T11:17:09;34.70;41.20
63013;DHT22;62113;45.624;11.700;2023-06-22T11:19:35;34.70;40.80
63013;DHT22;62113;45.624;11.700;2023-06-22T11:22:01;34.90;41.40
63013;DHT22;62113;45.624;11.700;2023-06-22T11:24:27;34.90;41.00
63013;DHT22;62113;45.624;11.700;2023-06-22T11:26:53;34.80;41.50
63013;DHT22;62113;45.624;11.700;2023-06-22T11:29:18;34.80;41.90
63013;DHT22;62113;45.624;11.700;2023-06-22T11:31:44;34.70;43.30
63013;DHT22;62113;45.624;11.700;2023-06-22T11:34:09;34.70;43.00
63013;DHT22;62113;45.624;11.700;2023-06-22T11:36:35;34.80;41.30
63013;DHT22;62113;45.624;11.700;2023-06-22T11:39:01;34.80;42.10
63013;DHT22;62113;45.624;11.700;2023-06-22T11:41:26;34.80;42.40
63013;DHT22;62113;45.624;11.700;2023-06-22T11:43:52;35.00;42.40
63013;DHT22;62113;45.624;11.700;2023-06-22T11:46:18;35.00;42.00
63013;DHT22;62113;45.624;11.700;2023-06-22T11:48:43;35.00;40.90
63013;DHT22;62113;45.624;11.700;2023-06-22T11:51:09;35.10;40.50
63013;DHT22;62113;45.624;11.700;2023-06-22T11:53:35;35.20;39.80
63013;DHT22;62113;45.624;11.700;2023-06-22T11:56:01;35.20;39.60
63013;DHT22;62113;45.624;11.700;2023-06-22T11:58:27;35.20;39.50
63013;DHT22;62113;45.624;11.700;2023-06-22T12:00:54;35.30;39.00
63013;DHT22;62113;45.624;11.700;2023-06-22T12:03:20;35.40;39.20
63013;DHT22;62113;45.624;11.700;2023-06-22T12:05:47;35.40;39.50
63013;DHT22;62113;45.624;11.700;2023-06-22T12:08:12;35.40;39.60
63013;DHT22;62113;45.624;11.700;2023-06-22T12:10:39;35.50;40.40
63013;DHT22;62113;45.624;11.700;2023-06-22T12:13:04;35.50;40.90
63013;DHT22;62113;45.624;11.700;2023-06-22T12:15:30;35.50;39.10
63013;DHT22;62113;45.624;11.700;2023-06-22T12:17:56;35.60;39.70
63013;DHT22;62113;45.624;11.700;2023-06-22T12:20:21;35.60;39.80
63013;DHT22;62113;45.624;11.700;2023-06-22T12:22:47;35.60;39.80
63013;DHT22;62113;45.624;11.700;2023-06-22T12:25:13;35.60;39.60
63013;DHT22;62113;45.624;11.700;2023-06-22T12:27:39;35.60;38.60
63013;DHT22;62113;45.624;11.700;2023-06-22T12:30:05;35.70;38.50
63013;DHT22;62113;45.624;11.700;2023-06-22T12:32:31;35.70;38.50
63013;DHT22;62113;45.624;11.700;2023-06-22T12:34:57;35.70;39.00
63013;DHT22;62113;45.624;11.700;2023-06-22T12:37:23;35.80;38.90
63013;DHT22;62113;45.624;11.700;2023-06-22T12:39:49;35.70;39.60
63013;DHT22;62113;45.624;11.700;2023-06-22T12:42:15;35.70;39.50
63013;DHT22;62113;45.624;11.700;2023-06-22T12:44:41;35.70;39.70
63013;DHT22;62113;45.624;11.700;2023-06-22T12:47:07;35.70;39.50
63013;DHT22;62113;45.624;11.700;2023-06-22T12:49:36;35.70;39.20
63013;DHT22;62113;45.624;11.700;2023-06-22T12:52:02;35.70;39.30
63013;DHT22;62113;45.624;11.700;2023-06-22T12:54:28;35.80;39.20
63013;DHT22;62113;45.624;11.700;2023-06-22T12:56:55;35.80;39.40
63013;DHT22;62113;45.624;11.700;2023-06-22T12:59:20;35.90;39.40
63013;DHT22;62113;45.624;11.700;2023-06-22T13:01:46;35.90;39.30
63013;DHT22;62113;45.624;11.700;2023-06-22T13:04:12;36.00;39.30
63013;DHT22;62113;45.624;11.700;2023-06-22T13:06:43;35.90;38.90
63013;DHT22;62113;45.624;11.700;2023-06-22T13:09:13;35.70;39.30
63013;DHT22;62113;45.624;11.700;2023-06-22T13:11:38;35.60;39.40
63013;DHT22;62113;45.624;11.700;2023-06-22T13:14:04;35.60;39.60
63013;DHT22;62113;45.624;11.700;2023-06-22T13:16:30;35.60;41.10
63013;DHT22;62113;45.624;11.700;2023-06-22T13:18:55;35.60;40.10
63013;DHT22;62113;45.624;11.700;2023-06-22T13:21:21;35.70;39.60
63013;DHT22;62113;45.624;11.700;2023-06-22T13:23:46;35.70;40.80
63013;DHT22;62113;45.624;11.700;2023-06-22T13:26:12;35.80;40.60
63013;DHT22;62113;45.624;11.700;2023-06-22T13:28:38;35.80;39.00
63013;DHT22;62113;45.624;11.700;2023-06-22T13:31:03;35.80;38.60
63013;DHT22;62113;45.624;11.700;2023-06-22T13:33:29;35.90;38.90
63013;DHT22;62113;45.624;11.700;2023-06-22T13:35:54;36.00;39.10
63013;DHT22;62113;45.624;11.700;2023-06-22T13:38:20;36.00;38.90
63013;DHT22;62113;45.624;11.700;2023-06-22T13:40:46;36.00;38.90
63013;DHT22;62113;45.624;11.700;2023-06-22T13:43:13;36.00;38.90
63013;DHT22;62113;45.624;11.700;2023-06-22T13:45:38;35.90;39.50
63013;DHT22;62113;45.624;11.700;2023-06-22T13:48:04;36.00;39.60
63013;DHT22;62113;45.624;11.700;2023-06-22T13:50:30;36.00;39.70
63013;DHT22;62113;45.624;11.700;2023-06-22T13:52:55;36.00;39.80
63013;DHT22;62113;45.624;11.700;2023-06-22T13:55:22;36.10;40.20
63013;DHT22;62113;45.624;11.700;2023-06-22T13:57:49;36.10;40.10
63013;DHT22;62113;45.624;11.700;2023-06-22T14:00:16;36.00;40.30
63013;DHT22;62113;45.624;11.700;2023-06-22T14:02:41;36.00;40.10
63013;DHT22;62113;45.624;11.700;2023-06-22T14:05:08;36.00;40.40
63013;DHT22;62113;45.624;11.700;2023-06-22T14:07:33;35.90;41.10
63013;DHT22;62113;45.624;11.700;2023-06-22T14:10:00;35.90;41.50
63013;DHT22;62113;45.624;11.700;2023-06-22T14:12:26;35.80;41.50
63013;DHT22;62113;45.624;11.700;2023-06-22T14:14:52;35.70;41.60
63013;DHT22;62113;45.624;11.700;2023-06-22T14:17:17;35.70;41.70
63013;DHT22;62113;45.624;11.700;2023-06-22T14:19:49;35.70;42.00
63013;DHT22;62113;45.624;11.700;2023-06-22T14:22:15;35.70;42.40
63013;DHT22;62113;45.624;11.700;2023-06-22T14:24:40;35.70;42.40
63013;DHT22;62113;45.624;11.700;2023-06-22T14:27:06;35.70;43.10
63013;DHT22;62113;45.624;11.700;2023-06-22T14:29:34;35.60;42.40
63013;DHT22;62113;45.624;11.700;2023-06-22T14:31:59;35.60;42.40
63013;DHT22;62113;45.624;11.700;2023-06-22T14:34:25;35.70;42.70
63013;DHT22;62113;45.624;11.700;2023-06-22T14:36:51;35.60;43.00
63013;DHT22;62113;45.624;11.700;2023-06-22T14:39:16;35.60;43.30
63013;DHT22;62113;45.624;11.700;2023-06-22T14:41:42;35.50;43.70
63013;DHT22;62113;45.624;11.700;2023-06-22T14:44:07;35.50;43.70
63013;DHT22;62113;45.624;11.700;2023-06-22T14:46:33;35.40;43.40
63013;DHT22;62113;45.624;11.700;2023-06-22T14:48:59;35.40;43.70
63013;DHT22;62113;45.624;11.700;2023-06-22T14:51:24;35.40;43.30
63013;DHT22;62113;45.624;11.700;2023-06-22T14:53:50;35.40;43.80
63013;DHT22;62113;45.624;11.700;2023-06-22T14:56:16;35.50;43.50
63013;DHT22;62113;45.624;11.700;2023-06-22T14:58:42;35.50;43.10
63013;DHT22;62113;45.624;11.700;2023-06-22T15:01:11;35.50;43.20
63013;DHT22;62113;45.624;11.700;2023-06-22T15:03:37;35.40;42.70
63013;DHT22;62113;45.624;11.700;2023-06-22T15:06:03;35.30;42.70
63013;DHT22;62113;45.624;11.700;2023-06-22T15:08:29;35.30;44.20
63013;DHT22;62113;45.624;11.700;2023-06-22T15:10:57;35.20;44.00
63013;DHT22;62113;45.624;11.700;2023-06-22T15:13:23;35.20;43.90
63013;DHT22;62113;45.624;11.700;2023-06-22T15:15:50;35.10;44.30